createdAt,value
2024-03-19T00:01:12.085Z,65.45
2024-03-19T00:03:48.783Z,65.55
2024-03-19T00:06:19.165Z,65.91
2024-03-19T00:08:49.565Z,66.35
2024-03-19T00:11:20.068Z,66.39
2024-03-19T00:13:50.386Z,66.35
2024-03-19T00:16:21.036Z,66.43
2024-03-19T00:18:51.512Z,66.40
2024-03-19T00:21:22.236Z,66.44
2024-03-19T00:23:53.049Z,66.53
2024-03-19T00:26:23.491Z,66.71
2024-03-19T00:28:54.156Z,66.81
2024-03-19T00:31:24.715Z,66.71
2024-03-19T00:33:55.152Z,67.03
2024-03-19T00:36:25.586Z,67.21
2024-03-19T00:38:55.994Z,67.75
2024-03-19T00:41:26.293Z,67.51
2024-03-19T00:43:56.725Z,68.12
2024-03-19T00:46:27.163Z,68.40
2024-03-19T00:48:57.576Z,68.29
2024-03-19T00:51:28.528Z,68.69
2024-03-19T00:53:58.962Z,68.75
2024-03-19T00:56:29.479Z,68.72
2024-03-19T00:58:59.823Z,68.65
2024-03-19T01:01:30.210Z,68.90
2024-03-19T01:04:00.703Z,69.08
2024-03-19T01:06:31.063Z,68.83
2024-03-19T01:09:01.567Z,68.84
2024-03-19T01:11:32.226Z,68.94
2024-03-19T01:14:02.778Z,69.04
2024-03-19T01:16:33.351Z,69.00
2024-03-19T01:19:03.774Z,69.41
2024-03-19T01:21:34.205Z,69.03
2024-03-19T01:24:05.496Z,69.15
2024-03-19T01:26:36.063Z,68.88
2024-03-19T01:29:06.377Z,68.99
2024-03-19T01:31:37.320Z,68.69
2024-03-19T01:34:07.901Z,68.53
2024-03-19T01:36:38.189Z,68.56
2024-03-19T01:39:08.587Z,68.42
2024-03-19T01:41:39.794Z,68.52
2024-03-19T01:44:15.689Z,68.42
2024-03-19T01:46:45.970Z,68.42
2024-03-19T01:49:17.162Z,68.66
2024-03-19T01:51:49.122Z,68.91
2024-03-19T01:54:20.623Z,68.71
2024-03-19T01:56:51.134Z,68.80
2024-03-19T01:59:21.791Z,68.93
2024-03-19T02:01:52.317Z,69.28
2024-03-19T02:04:22.994Z,69.44
2024-03-19T02:06:53.373Z,69.46
2024-03-19T02:09:23.705Z,69.89
2024-03-19T02:11:54.115Z,69.85
2024-03-19T02:14:24.714Z,70.24
2024-03-19T02:16:55.295Z,70.43
2024-03-19T02:19:25.714Z,70.35
2024-03-19T02:21:56.306Z,70.90
2024-03-19T02:24:26.815Z,70.87
2024-03-19T02:26:57.234Z,70.76
2024-03-19T02:29:27.641Z,70.80
2024-03-19T02:31:57.867Z,70.58
2024-03-19T02:34:28.445Z,70.53
2024-03-19T02:36:59.209Z,70.55
2024-03-19T02:39:29.819Z,70.48
2024-03-19T02:42:00.129Z,70.76
2024-03-19T02:44:30.992Z,70.71
2024-03-19T02:47:01.648Z,70.78
2024-03-19T02:49:31.016Z,70.88
2024-03-19T02:52:01.519Z,71.10
2024-03-19T02:54:31.957Z,70.97
2024-03-19T02:57:02.399Z,71.32
2024-03-19T02:59:32.893Z,71.34
2024-03-19T03:02:03.246Z,71.54
2024-03-19T03:04:33.689Z,71.60
2024-03-19T03:07:04.383Z,71.76
2024-03-19T03:09:34.888Z,71.81
2024-03-19T03:12:07.498Z,71.70
2024-03-19T03:14:37.930Z,71.81
2024-03-19T03:17:08.344Z,71.61
2024-03-19T03:19:38.897Z,71.85
2024-03-19T03:22:09.344Z,71.98
2024-03-19T03:24:39.797Z,71.96
2024-03-19T03:27:10.203Z,72.00
2024-03-19T03:29:41.238Z,71.90
2024-03-19T03:32:11.964Z,72.33
2024-03-19T03:34:42.475Z,71.98
2024-03-19T03:37:15.845Z,72.07
2024-03-19T03:39:49.026Z,72.33
2024-03-19T03:42:19.935Z,72.36
2024-03-19T03:44:50.523Z,72.23
2024-03-19T03:47:21.384Z,72.21
2024-03-19T03:49:51.796Z,72.18
2024-03-19T03:52:22.388Z,72.44
2024-03-19T03:54:53.408Z,72.53
2024-03-19T03:57:22.176Z,72.47
2024-03-19T03:59:52.798Z,72.26
2024-03-19T04:02:23.402Z,72.50
2024-03-19T04:04:55.369Z,72.75
2024-03-19T04:07:25.897Z,72.75
2024-03-19T04:09:56.414Z,72.79
2024-03-19T04:12:27.449Z,72.88
2024-03-19T04:14:56.407Z,72.65
2024-03-19T04:17:29.252Z,72.61
2024-03-19T04:20:01.958Z,72.72
2024-03-19T04:22:32.749Z,72.85
2024-03-19T04:25:03.665Z,72.85
2024-03-19T04:27:34.186Z,72.94
2024-03-19T04:30:05.028Z,72.96
2024-03-19T04:32:35.837Z,73.06
2024-03-19T04:35:07.233Z,72.97
2024-03-19T04:37:37.575Z,73.39
2024-03-19T04:40:10.551Z,73.30
2024-03-19T04:42:41.264Z,73.38
2024-03-19T04:45:13.209Z,73.49
2024-03-19T04:47:44.079Z,73.36
2024-03-19T04:50:14.409Z,73.82
2024-03-19T04:52:44.817Z,73.80
2024-03-19T04:55:15.956Z,73.64
2024-03-19T04:57:44.790Z,73.83
2024-03-19T05:00:19.428Z,74.31
2024-03-19T05:02:49.986Z,74.14
2024-03-19T05:05:20.415Z,74.36
2024-03-19T05:07:50.975Z,74.26
2024-03-19T05:10:21.525Z,74.32
2024-03-19T05:12:52.685Z,74.16
2024-03-19T05:15:23.084Z,74.50
2024-03-19T05:17:53.632Z,74.51
2024-03-19T05:20:24.178Z,74.61
2024-03-19T05:22:54.523Z,74.83
2024-03-19T05:25:24.991Z,74.55
2024-03-19T05:27:55.647Z,74.69
2024-03-19T05:30:27.170Z,74.81
2024-03-19T05:32:57.744Z,74.60
2024-03-19T05:35:28.035Z,74.64
2024-03-19T05:37:58.450Z,74.52
2024-03-19T05:40:28.880Z,74.77
2024-03-19T05:42:59.251Z,74.89
2024-03-19T05:45:29.676Z,75.07
2024-03-19T05:48:00.239Z,75.30
2024-03-19T05:50:31.126Z,75.21
2024-03-19T05:53:02.330Z,75.33
2024-03-19T05:55:31.267Z,75.26
2024-03-19T05:58:01.610Z,75.49
2024-03-19T06:00:32.073Z,75.85
2024-03-19T06:03:02.454Z,75.56
2024-03-19T06:05:39.518Z,75.92
2024-03-19T06:08:31.542Z,75.73
2024-03-19T06:11:02.040Z,75.64
2024-03-19T06:13:34.776Z,76.18
2024-03-19T06:16:08.019Z,76.42
2024-03-19T06:18:39.245Z,76.81
2024-03-19T06:21:09.624Z,76.53
2024-03-19T06:23:40.538Z,76.48
2024-03-19T06:26:11.116Z,76.39
2024-03-19T06:28:41.464Z,76.27
2024-03-19T06:31:12.116Z,76.41
2024-03-19T06:33:42.812Z,76.17
2024-03-19T06:36:13.283Z,76.19
2024-03-19T06:38:43.694Z,76.13
2024-03-19T06:41:14.892Z,75.89
2024-03-19T06:43:43.722Z,75.50
2024-03-19T06:46:14.002Z,75.59
2024-03-19T06:48:44.676Z,75.47
2024-03-19T06:51:15.303Z,75.39
2024-03-19T06:53:46.435Z,75.22
2024-03-19T06:56:17.176Z,75.02
2024-03-19T06:58:48.696Z,74.94
2024-03-19T07:01:19.577Z,74.56
2024-03-19T07:03:56.607Z,74.33
2024-03-19T07:06:33.266Z,74.22
2024-03-19T07:09:03.730Z,74.30
2024-03-19T07:11:34.016Z,73.84
2024-03-19T07:14:05.189Z,72.79
2024-03-19T07:16:34.003Z,73.25
2024-03-19T07:19:04.572Z,72.47
2024-03-19T07:21:35.424Z,72.71
2024-03-19T07:24:07.399Z,72.85
2024-03-19T07:26:37.841Z,72.13
2024-03-19T07:29:08.810Z,71.51
2024-03-19T07:31:39.429Z,72.42
2024-03-19T07:34:09.899Z,72.00
2024-03-19T07:36:41.603Z,70.96
2024-03-19T07:39:12.581Z,70.28
2024-03-19T07:41:43.392Z,70.12
2024-03-19T07:44:13.846Z,70.35
2024-03-19T07:46:45.022Z,70.62
2024-03-19T07:49:13.918Z,70.19
2024-03-19T07:51:44.321Z,69.73
2024-03-19T07:54:14.993Z,68.85
2024-03-19T07:56:45.562Z,68.94
2024-03-19T07:59:16.078Z,69.28
2024-03-19T08:01:46.583Z,69.52
2024-03-19T08:04:17.283Z,69.02
2024-03-19T08:06:47.946Z,67.65
2024-03-19T08:09:19.978Z,68.75
2024-03-19T08:11:50.683Z,67.98
2024-03-19T08:14:24.693Z,67.49
2024-03-19T08:16:55.233Z,65.29
2024-03-19T08:19:25.481Z,67.51
2024-03-19T08:21:55.908Z,67.18
2024-03-19T08:24:26.716Z,67.64
2024-03-19T08:26:57.180Z,65.94
2024-03-19T08:29:28.325Z,63.94
2024-03-19T08:31:58.703Z,63.60
2024-03-19T08:34:29.298Z,65.54
2024-03-19T08:36:59.818Z,66.22
2024-03-19T08:39:30.421Z,65.68
2024-03-19T08:42:05.603Z,65.84
2024-03-19T08:44:36.764Z,64.74
2024-03-19T08:47:07.725Z,64.10
2024-03-19T08:49:38.314Z,64.10
2024-03-19T08:52:10.624Z,64.05
2024-03-19T08:54:41.125Z,64.13
2024-03-19T08:57:32.493Z,63.27
2024-03-19T09:00:02.962Z,61.82
2024-03-19T09:02:33.418Z,61.86
2024-03-19T09:05:04.043Z,61.96
2024-03-19T09:07:35.384Z,61.73
2024-03-19T09:10:08.319Z,61.71
2024-03-19T09:12:39.023Z,61.04
2024-03-19T09:15:11.717Z,61.95
2024-03-19T09:17:42.709Z,62.09
2024-03-19T09:20:13.205Z,62.45
2024-03-19T09:22:43.539Z,62.27
2024-03-19T09:25:14.177Z,59.89
2024-03-19T09:27:44.577Z,59.79
2024-03-19T09:30:17.049Z,59.95
2024-03-19T09:32:47.484Z,59.57
2024-03-19T09:35:18.268Z,59.31
2024-03-19T09:37:48.676Z,58.95
2024-03-19T09:40:19.354Z,58.46
2024-03-19T09:42:51.249Z,58.18
2024-03-19T09:45:28.232Z,57.63
2024-03-19T09:47:58.932Z,58.22
2024-03-19T09:50:29.524Z,58.34
2024-03-19T09:53:00.032Z,58.28
2024-03-19T09:55:30.665Z,57.79
2024-03-19T09:58:02.203Z,57.81
2024-03-19T10:00:33.180Z,57.21
2024-03-19T10:03:03.732Z,56.59
2024-03-19T10:05:41.995Z,54.15
2024-03-19T10:08:14.490Z,53.76
2024-03-19T10:10:48.366Z,54.94
2024-03-19T10:13:18.646Z,54.84
2024-03-19T10:15:53.171Z,54.11
2024-03-19T10:18:24.481Z,54.74
2024-03-19T10:20:59.107Z,55.25
2024-03-19T10:23:31.058Z,54.88
2024-03-19T10:26:01.380Z,54.45
2024-03-19T10:28:31.885Z,54.70
2024-03-19T10:31:02.682Z,54.80
2024-03-19T10:33:34.004Z,51.53
2024-03-19T10:36:05.476Z,51.30
2024-03-19T10:38:37.299Z,54.02
2024-03-19T10:41:19.109Z,53.68
2024-03-19T10:43:51.032Z,53.52
2024-03-19T10:46:22.471Z,52.45
2024-03-19T10:49:03.463Z,52.22
2024-03-19T10:51:33.258Z,52.74
2024-03-19T10:54:04.717Z,52.68
2024-03-19T10:56:36.175Z,51.86
2024-03-19T10:59:09.386Z,50.56
2024-03-19T11:01:47.622Z,52.05
2024-03-19T11:04:23.773Z,49.93
2024-03-19T11:06:57.893Z,50.75
2024-03-19T11:09:30.396Z,51.15
2024-03-19T11:12:02.690Z,49.97
2024-03-19T11:14:34.241Z,48.19
2024-03-19T11:17:17.978Z,48.91
2024-03-19T11:19:55.425Z,49.27
2024-03-19T11:22:26.165Z,49.95
2024-03-19T11:25:00.180Z,50.17
2024-03-19T11:27:36.116Z,50.46
2024-03-19T11:30:17.941Z,51.25
2024-03-19T11:32:49.835Z,50.89
2024-03-19T11:35:22.106Z,51.08
2024-03-19T11:37:53.313Z,50.04
2024-03-19T11:40:24.151Z,48.65
2024-03-19T11:42:54.746Z,50.92
2024-03-19T11:45:26.052Z,49.84
2024-03-19T11:47:58.785Z,49.75
2024-03-19T11:50:29.289Z,49.36
2024-03-19T11:53:01.173Z,50.29
2024-03-19T11:55:33.190Z,49.62
2024-03-19T11:58:03.841Z,48.96
2024-03-19T12:00:34.266Z,49.27
2024-03-19T12:03:06.876Z,49.18
2024-03-19T12:05:37.283Z,49.14
2024-03-19T12:08:15.200Z,49.36
2024-03-19T12:10:46.509Z,50.33
2024-03-19T12:13:18.052Z,50.27
2024-03-19T12:15:48.587Z,49.18
2024-03-19T12:18:19.278Z,49.50
2024-03-19T12:20:50.465Z,49.39
2024-03-19T12:23:20.715Z,48.97
2024-03-19T12:25:51.274Z,49.38
2024-03-19T12:28:21.697Z,49.56
2024-03-19T12:30:53.019Z,49.35
2024-03-19T12:33:26.257Z,49.31
2024-03-19T12:35:58.417Z,48.65
2024-03-19T12:38:30.317Z,47.65
2024-03-19T12:41:00.813Z,48.86
2024-03-19T12:43:31.355Z,48.13
2024-03-19T12:46:01.731Z,48.83
2024-03-19T12:48:32.235Z,48.59
2024-03-19T12:51:02.932Z,47.06
2024-03-19T12:53:33.256Z,47.15
2024-03-19T12:56:03.777Z,49.00
2024-03-19T12:58:34.557Z,49.14
2024-03-19T13:01:05.216Z,48.55
2024-03-19T13:03:35.630Z,49.26
2024-03-19T13:06:06.963Z,48.41
2024-03-19T13:08:39.400Z,48.91
2024-03-19T13:11:10.093Z,48.97
2024-03-19T13:13:40.670Z,48.91
2024-03-19T13:16:11.166Z,48.11
2024-03-19T13:18:42.394Z,48.15
2024-03-19T13:21:12.885Z,48.02
2024-03-19T13:23:43.543Z,47.83
2024-03-19T13:26:17.131Z,48.31
2024-03-19T13:28:47.500Z,48.60
2024-03-19T13:31:19.631Z,48.48
2024-03-19T13:33:53.199Z,47.79
2024-03-19T13:36:23.719Z,47.17
2024-03-19T13:38:56.361Z,48.44
2024-03-19T13:41:26.993Z,48.11
2024-03-19T13:43:58.797Z,47.89
2024-03-19T13:46:29.355Z,47.41
2024-03-19T13:48:59.871Z,48.03
2024-03-19T13:51:32.035Z,48.23
2024-03-19T13:54:05.801Z,48.75
2024-03-19T13:56:36.963Z,48.78
2024-03-19T13:59:08.898Z,47.75
2024-03-19T14:01:39.289Z,47.60
2024-03-19T14:04:12.721Z,48.00
2024-03-19T14:06:43.804Z,47.67
2024-03-19T14:09:13.492Z,47.93
2024-03-19T14:11:43.894Z,47.86
2024-03-19T14:14:14.272Z,47.34
2024-03-19T14:16:44.578Z,47.87
2024-03-19T14:19:15.507Z,47.83
2024-03-19T14:21:44.258Z,47.90
2024-03-19T14:24:14.720Z,47.47
2024-03-19T14:26:45.138Z,47.50
2024-03-19T14:29:35.753Z,48.25
2024-03-19T14:32:09.979Z,48.13
2024-03-19T14:34:40.359Z,48.15
2024-03-19T14:37:10.696Z,47.73
2024-03-19T14:40:01.841Z,47.55
2024-03-19T14:42:32.923Z,47.60
2024-03-19T14:45:03.785Z,47.85
2024-03-19T14:47:34.395Z,48.14
2024-03-19T14:50:05.998Z,47.63
2024-03-19T14:52:36.807Z,47.93
2024-03-19T14:55:11.065Z,48.46
2024-03-19T14:57:42.730Z,47.85
2024-03-19T15:00:15.179Z,47.65
2024-03-19T15:02:46.117Z,48.01
2024-03-19T15:05:16.920Z,47.23
2024-03-19T15:07:47.428Z,47.56
2024-03-19T15:10:18.130Z,47.71
2024-03-19T15:12:49.358Z,47.57
2024-03-19T15:15:20.068Z,48.05
2024-03-19T15:17:50.616Z,47.47
2024-03-19T15:20:20.932Z,48.35
2024-03-19T15:22:51.346Z,48.35
2024-03-19T15:25:23.912Z,48.55
2024-03-19T15:27:54.366Z,48.47
2024-03-19T15:30:25.102Z,48.60
2024-03-19T15:32:55.730Z,48.66
2024-03-19T15:35:26.457Z,48.70
2024-03-19T15:37:56.828Z,48.48
2024-03-19T15:40:27.495Z,48.70
2024-03-19T15:42:57.898Z,48.75
2024-03-19T15:45:30.353Z,48.45
2024-03-19T15:48:03.065Z,48.61
2024-03-19T15:50:33.457Z,48.73
2024-03-19T15:53:04.338Z,48.70
2024-03-19T15:55:33.402Z,49.12
2024-03-19T15:58:04.408Z,48.97
2024-03-19T16:00:34.869Z,48.88
2024-03-19T16:03:07.368Z,48.73
2024-03-19T16:05:38.046Z,49.13
2024-03-19T16:08:15.243Z,49.37
2024-03-19T16:10:45.629Z,49.36
2024-03-19T16:13:16.113Z,49.65
2024-03-19T16:15:46.689Z,49.69
2024-03-19T16:18:17.685Z,49.85
2024-03-19T16:20:47.939Z,49.83
2024-03-19T16:23:18.436Z,50.02
2024-03-19T16:25:49.019Z,50.12
2024-03-19T16:28:20.101Z,50.15
2024-03-19T16:30:48.870Z,50.33
2024-03-19T16:33:19.507Z,50.40
2024-03-19T16:35:49.856Z,50.46
2024-03-19T16:38:20.254Z,50.72
2024-03-19T16:40:50.544Z,50.71
2024-03-19T16:43:21.098Z,50.90
2024-03-19T16:45:52.951Z,51.00
2024-03-19T16:48:23.679Z,51.11
2024-03-19T16:50:54.184Z,51.12
2024-03-19T16:53:24.582Z,51.43
2024-03-19T16:55:55.300Z,51.70
2024-03-19T16:58:27.649Z,51.60
2024-03-19T17:00:58.386Z,51.70
2024-03-19T17:03:28.696Z,51.85
2024-03-19T17:06:02.459Z,51.90
2024-03-19T17:08:33.330Z,52.14
2024-03-19T17:11:04.022Z,52.28
2024-03-19T17:13:38.968Z,52.31
2024-03-19T17:16:11.407Z,52.52
2024-03-19T17:18:42.341Z,52.53
2024-03-19T17:21:12.939Z,52.73
2024-03-19T17:23:43.438Z,52.82
2024-03-19T17:26:16.072Z,52.79
2024-03-19T17:28:46.476Z,52.96
2024-03-19T17:31:16.953Z,52.98
2024-03-19T17:33:47.524Z,53.00
2024-03-19T17:36:18.367Z,53.16
2024-03-19T17:38:49.501Z,53.23
2024-03-19T17:41:20.304Z,53.31
2024-03-19T17:43:50.671Z,53.24
2024-03-19T17:46:20.992Z,53.55
2024-03-19T17:48:54.788Z,53.58
2024-03-19T17:51:25.335Z,53.68
2024-03-19T17:53:56.262Z,53.74
2024-03-19T17:56:26.892Z,53.82
2024-03-19T17:58:57.501Z,54.06
2024-03-19T18:01:27.850Z,54.10
2024-03-19T18:03:58.234Z,54.28
2024-03-19T18:06:29.494Z,54.41
2024-03-19T18:09:00.895Z,54.46
2024-03-19T18:11:31.793Z,54.81
2024-03-19T18:14:02.309Z,54.84
2024-03-19T18:16:33.483Z,55.15
2024-03-19T18:19:03.972Z,55.19
2024-03-19T18:21:37.361Z,55.44
2024-03-19T18:24:09.508Z,55.53
2024-03-19T18:26:39.920Z,55.88
2024-03-19T18:29:10.642Z,55.85
2024-03-19T18:31:44.628Z,55.83
2024-03-19T18:34:15.439Z,56.05
2024-03-19T18:36:46.304Z,56.45
2024-03-19T18:39:17.455Z,56.31
2024-03-19T18:41:48.009Z,56.47
2024-03-19T18:44:18.840Z,56.77
2024-03-19T18:46:49.633Z,57.40
2024-03-19T18:49:20.051Z,57.32
2024-03-19T18:51:50.395Z,57.44
2024-03-19T18:54:20.903Z,57.47
2024-03-19T18:56:51.366Z,57.83
2024-03-19T18:59:21.705Z,58.00
2024-03-19T19:01:51.989Z,58.42
2024-03-19T19:04:22.874Z,58.62
2024-03-19T19:06:53.721Z,58.43
2024-03-19T19:09:24.276Z,58.95
2024-03-19T19:11:54.699Z,59.24
2024-03-19T19:14:25.089Z,59.19
2024-03-19T19:16:55.430Z,59.44
2024-03-19T19:19:25.732Z,59.05
2024-03-19T19:22:01.965Z,59.30
2024-03-19T19:24:32.384Z,59.53
2024-03-19T19:27:02.832Z,59.79
2024-03-19T19:29:33.600Z,59.86
2024-03-19T19:32:04.162Z,47.68
2024-03-19T19:34:34.588Z,59.91
2024-03-19T19:37:05.354Z,59.91
2024-03-19T19:39:35.855Z,60.30
2024-03-19T19:42:07.143Z,60.84
2024-03-19T19:44:37.524Z,61.32
2024-03-19T19:47:09.653Z,61.43
2024-03-19T19:49:40.167Z,61.69
2024-03-19T19:52:11.062Z,61.87
2024-03-19T19:54:41.883Z,61.72
2024-03-19T19:57:12.681Z,61.98
2024-03-19T19:59:43.241Z,62.09
2024-03-19T20:02:17.520Z,62.47
2024-03-19T20:04:48.402Z,62.72
2024-03-19T20:07:19.054Z,62.61
2024-03-19T20:09:49.400Z,62.64
2024-03-19T20:12:19.797Z,62.69
2024-03-19T20:14:50.244Z,62.68
2024-03-19T20:17:20.724Z,62.76
2024-03-19T20:19:51.166Z,62.92
2024-03-19T20:22:21.510Z,62.89
2024-03-19T20:24:57.104Z,63.04
2024-03-19T20:27:34.477Z,63.17
2024-03-19T20:30:08.197Z,63.16
2024-03-19T20:32:38.726Z,63.28
2024-03-19T20:35:11.763Z,63.50
2024-03-19T20:37:42.356Z,63.59
2024-03-19T20:40:16.119Z,63.82
2024-03-19T20:42:47.552Z,63.86
2024-03-19T20:45:17.996Z,64.04
2024-03-19T20:47:49.292Z,64.07
2024-03-19T20:50:18.220Z,64.36
2024-03-19T20:52:48.602Z,64.29
2024-03-19T20:55:19.042Z,64.53
2024-03-19T20:57:49.631Z,64.74
2024-03-19T21:00:21.771Z,64.72
2024-03-19T21:02:52.103Z,64.74
2024-03-19T21:05:22.551Z,64.74
2024-03-19T21:07:53.077Z,64.96
2024-03-19T21:10:23.617Z,65.17
2024-03-19T21:12:54.110Z,65.29
2024-03-19T21:15:25.179Z,65.29
2024-03-19T21:17:54.029Z,65.23
2024-03-19T21:20:24.790Z,65.44
2024-03-19T21:22:55.185Z,65.53
2024-03-19T21:25:25.860Z,65.80
2024-03-19T21:27:56.307Z,65.81
2024-03-19T21:30:27.220Z,66.01
2024-03-19T21:32:57.716Z,66.01
2024-03-19T21:35:28.042Z,66.22
2024-03-19T21:37:58.657Z,66.12
2024-03-19T21:40:31.262Z,66.50
2024-03-19T21:43:01.697Z,66.49
2024-03-19T21:45:32.214Z,66.73
2024-03-19T21:48:03.038Z,66.68
2024-03-19T21:50:33.641Z,67.33
2024-03-19T21:53:04.306Z,67.27
2024-03-19T21:55:34.789Z,67.20
2024-03-19T21:58:05.687Z,67.29
2024-03-19T22:00:36.247Z,67.12
2024-03-19T22:03:08.483Z,67.05
2024-03-19T22:05:39.723Z,67.28
2024-03-19T22:08:14.782Z,67.25
2024-03-19T22:10:47.629Z,67.05
2024-03-19T22:13:18.461Z,67.20
2024-03-19T22:15:55.564Z,67.25
2024-03-19T22:18:25.871Z,67.25
2024-03-19T22:20:56.271Z,67.56
2024-03-19T22:23:26.702Z,67.75
2024-03-19T22:25:57.131Z,67.90
2024-03-19T22:28:27.722Z,68.30
2024-03-19T22:30:58.093Z,68.35
2024-03-19T22:33:28.928Z,68.39
2024-03-19T22:36:00.558Z,68.58
2024-03-19T22:38:31.000Z,68.69
2024-03-19T22:41:01.618Z,68.84
2024-03-19T22:43:31.906Z,68.94
2024-03-19T22:46:02.441Z,68.82
2024-03-19T22:48:32.767Z,68.84
2024-03-19T22:51:03.246Z,68.65
2024-03-19T22:53:33.514Z,68.80
2024-03-19T22:56:04.044Z,68.81
2024-03-19T22:58:34.710Z,68.42
2024-03-19T23:02:57.209Z,68.82
2024-03-19T23:05:33.833Z,68.96
2024-03-19T23:08:04.486Z,69.15
2024-03-19T23:10:34.921Z,69.37
2024-03-19T23:13:06.817Z,69.38
2024-03-19T23:15:38.533Z,69.69
2024-03-19T23:18:09.247Z,69.82
2024-03-19T23:20:39.672Z,69.76
2024-03-19T23:23:10.117Z,70.50
2024-03-19T23:25:40.618Z,70.20
2024-03-19T23:28:11.084Z,69.97
2024-03-19T23:30:41.903Z,69.90
2024-03-19T23:33:12.495Z,69.88
2024-03-19T23:35:43.264Z,70.07
2024-03-19T23:38:13.754Z,69.92
2024-03-19T23:40:44.007Z,69.76
2024-03-19T23:43:14.567Z,69.73
2024-03-19T23:45:45.398Z,69.69
2024-03-19T23:48:15.939Z,69.87
2024-03-19T23:50:46.358Z,70.26
2024-03-19T23:53:16.915Z,70.59
2024-03-19T23:55:47.834Z,70.58
2024-03-19T23:58:18.193Z,70.77
